Time;durP1;ratioP1;P1;durP2;ratioP2;P2;SDS_P1;SDS_P2;PMS_P1;PMS_P2;Temp;Humidity;BMP_temperature;BMP_pressure;BME280_temperature;BME280_humidity;BME280_pressure;Samples;Min_cycle;Max_cycle;Signal;HPM_P1;HPM_P2
2023/02/25 00:00:52;;;;;;;5.97;4.83;;;;;;;6.28;87.90;94272.13;6248101;22;20574;-91
2023/02/25 00:03:32;;;;;;;5.37;4.10;;;;;;;6.22;87.25;94288.19;6268695;22;20552;-91
2023/02/25 00:06:09;;;;;;;4.97;4.23;;;;;;;6.26;87.52;94289.41;6268454;22;20665;-91
2023/02/25 00:08:58;;;;;;;;;;;;;;;;;;;;;
2023/02/25 00:11:40;;;;;;;4.27;3.37;;;;;;;6.15;86.31;94293.25;6267985;22;20195;-91
2023/02/25 00:14:32;;;;;;;3.90;3.37;;;;;;;6.23;86.36;94282.91;6268557;22;20157;-91
2023/02/25 00:17:11;;;;;;;3.87;3.17;;;;;;;6.13;83.96;94284.97;6268356;22;20168;-92
2023/02/25 00:19:45;;;;;;;4.27;3.00;;;;;;;6.19;86.19;94284.22;6267986;22;20207;-91
2023/02/25 00:22:28;;;;;;;3.83;3.30;;;;;;;6.27;84.86;94290.19;6268023;22;20192;-91
2023/02/25 00:25:03;;;;;;;3.63;3.00;;;;;;;6.36;84.39;94289.09;6268453;22;20168;-91
2023/02/25 00:27:37;;;;;;;3.87;3.30;;;;;;;6.46;84.17;94302.38;6268107;22;20176;-91
2023/02/25 00:32:47;;;;;;;3.27;2.57;;;;;;;6.23;80.76;94305.91;6248191;22;20175;-91
2023/02/25 00:35:14;;;;;;;3.13;2.63;;;;;;;6.14;82.05;94312.09;6268632;22;20717;-91
2023/02/25 00:37:44;;;;;;;3.90;2.97;;;;;;;6.22;82.22;94311.19;6264777;22;20507;-91
2023/02/25 00:40:17;;;;;;;3.77;2.93;;;;;;;6.21;82.36;94314.72;6267929;22;20544;-91
2023/02/25 00:42:55;;;;;;;4.37;3.20;;;;;;;6.22;81.70;94308.63;6268038;22;20185;-91
2023/02/25 00:45:30;;;;;;;4.30;3.17;;;;;;;6.23;81.74;94312.75;6268101;22;20678;-91
2023/02/25 00:48:06;;;;;;;3.30;3.00;;;;;;;6.29;80.78;94314.59;6268072;22;20239;-92
2023/02/25 00:50:42;;;;;;;3.60;2.90;;;;;;;6.18;81.88;94328.63;6267653;22;20164;-91
2023/02/25 00:56:16;;;;;;;4.43;3.60;;;;;;;6.04;80.57;94347.34;6268221;22;20164;-91
2023/02/25 00:58:58;;;;;;;5.13;3.50;;;;;;;6.08;80.87;94351.13;6267688;22;20203;-91
2023/02/25 01:01:32;;;;;;;4.33;3.53;;;;;;;6.01;80.66;94350.25;6267582;22;20204;-92
2023/02/25 01:04:08;;;;;;;4.30;3.40;;;;;;;6.04;80.14;94356.78;6268309;22;20152;-91
2023/02/25 01:06:47;;;;;;;4.47;3.90;;;;;;;6.05;80.20;94343.03;6268258;22;20221;-91
2023/02/25 01:09:20;;;;;;;5.03;3.57;;;;;;;6.05;79.62;94335.38;6268134;22;20168;-91
2023/02/25 01:12:03;;;;;;;4.47;3.63;;;;;;;5.99;79.67;94341.97;6268178;22;20223;-91
2023/02/25 01:14:33;;;;;;;3.77;3.37;;;;;;;6.01;79.72;94346.91;6267797;22;20172;-90
2023/02/25 01:17:02;;;;;;;4.97;3.27;;;;;;;5.89;79.49;94352.50;6267863;22;20187;-90
2023/02/25 01:22:30;;;;;;;4.90;3.40;;;;;;;5.88;79.43;94358.56;6264718;22;20270;-89
2023/02/25 01:25:01;;;;;;;4.27;3.47;;;;;;;5.84;79.42;94359.06;6267435;22;20179;-90
2023/02/25 01:27:48;;;;;;;4.47;3.53;;;;;;;5.82;79.48;94345.66;6268128;22;20160;-90
2023/02/25 01:30:47;;;;;;;3.73;2.93;;;;;;;5.81;79.76;94344.88;6267121;22;20168;-90
2023/02/25 01:33:31;;;;;;;3.93;2.90;;;;;;;5.87;80.17;94346.72;6267594;22;20176;-89
2023/02/25 01:36:03;;;;;;;3.33;2.97;;;;;;;5.82;79.74;94348.22;6267390;22;20172;-90
2023/02/25 01:38:43;;;;;;;3.10;2.53;;;;;;;5.83;79.92;94347.25;6267091;22;20245;-90
2023/02/25 01:41:47;;;;;;;3.23;2.70;;;;;;;5.85;79.68;94348.66;6267213;22;20190;-90
2023/02/25 01:44:36;;;;;;;;;;;;;;;;;;;;;
2023/02/25 01:47:10;;;;;;;2.73;2.50;;;;;;;5.78;79.75;94344.44;6267326;22;20168;-90
2023/02/25 01:50:14;;;;;;;2.93;2.37;;;;;;;5.73;80.04;94347.53;6267943;22;20687;-90
2023/02/25 01:52:45;;;;;;;2.83;2.53;;;;;;;5.74;80.33;94356.00;6266981;22;20330;-90
2023/02/25 01:55:20;;;;;;;2.43;2.23;;;;;;;5.69;80.76;94343.75;6267897;22;20155;-89
2023/02/25 01:57:49;;;;;;;3.10;2.50;;;;;;;5.65;80.45;94352.72;6266307;22;20171;-90
2023/02/25 02:00:33;;;;;;;2.40;2.20;;;;;;;5.64;80.46;94352.91;6267192;22;20705;-90
2023/02/25 02:03:17;;;;;;;2.70;2.40;;;;;;;5.52;80.58;94353.34;6268235;22;20170;-90
2023/02/25 02:09:32;;;;;;;2.83;2.40;;;;;;;5.41;82.30;94358.88;6244509;22;20553;-89
2023/02/25 02:12:16;;;;;;;3.20;2.77;;;;;;;5.44;81.97;94352.63;6268068;22;20267;-90
2023/02/25 02:14:49;;;;;;;2.80;2.43;;;;;;;5.45;81.70;94349.91;6268210;22;20724;-90
2023/02/25 02:17:32;;;;;;;2.40;2.20;;;;;;;5.46;81.52;94354.03;6269564;22;20238;-89
2023/02/25 02:20:19;;;;;;;2.17;1.97;;;;;;;5.43;81.54;94356.16;6270938;22;20188;-90
2023/02/25 02:23:20;;;;;;;2.47;2.27;;;;;;;5.36;81.64;94361.19;6271603;22;20192;-91
2023/02/25 02:26:49;;;;;;;2.00;1.90;;;;;;;5.30;82.44;94358.53;6271605;22;20272;-91
2023/02/25 02:29:59;;;;;;;1.70;1.60;;;;;;;5.37;81.77;94355.09;6270873;22;20171;-91
2023/02/25 02:39:10;;;;;;;2.67;1.80;;;;;;;5.33;81.77;94347.97;6271720;22;20861;-91
2023/02/25 02:48:49;;;;;;;1.77;1.67;;;;;;;5.00;83.67;94365.34;6204619;22;20176;-91
2023/02/25 02:51:38;;;;;;;2.00;1.80;;;;;;;5.11;83.95;94364.91;6272811;22;20184;-91
2023/02/25 02:54:26;;;;;;;3.00;1.90;;;;;;;5.05;84.15;94361.28;6274535;22;20192;-90
2023/02/25 02:57:18;;;;;;;1.67;1.57;;;;;;;5.02;84.37;94363.38;6273720;22;20203;-91
2023/02/25 03:00:12;;;;;;;1.63;1.40;;;;;;;4.93;84.01;94362.66;6278385;22;20188;-91
2023/02/25 03:03:14;;;;;;;1.60;1.40;;;;;;;4.85;84.64;94360.97;6273845;22;20612;-91
2023/02/25 03:05:59;;;;;;;1.70;1.50;;;;;;;4.77;85.11;94361.06;6270735;22;20678;-92
2023/02/25 03:08:32;;;;;;;1.30;1.20;;;;;;;4.78;85.82;94361.84;6268937;22;20180;-90
2023/02/25 03:11:25;;;;;;;1.30;1.20;;;;;;;4.81;85.59;94377.56;6268902;22;20190;-89
2023/02/25 03:14:21;;;;;;;;;;;;;;;;;;;;;
2023/02/25 03:17:04;;;;;;;1.70;1.50;;;;;;;4.78;84.57;94357.53;6268794;22;20251;-90
2023/02/25 03:22:47;;;;;;;1.33;1.23;;;;;;;4.71;86.18;94363.47;6252157;22;20811;-90
2023/02/25 03:25:22;;;;;;;1.70;1.40;;;;;;;4.71;85.79;94355.81;6268458;22;20176;-89
2023/02/25 03:28:17;;;;;;;1.50;1.40;;;;;;;4.77;85.70;94355.16;6269009;22;20171;-89
2023/02/25 03:31:05;;;;;;;2.03;1.30;;;;;;;4.75;86.00;94367.28;6268672;22;21185;-89
2023/02/25 03:33:47;;;;;;;1.10;1.00;;;;;;;4.77;85.36;94373.00;6268709;22;20235;-90
2023/02/25 03:36:21;;;;;;;1.40;1.27;;;;;;;4.80;85.07;94368.34;6268715;22;20168;-89
2023/02/25 03:39:20;;;;;;;1.27;1.10;;;;;;;4.86;85.15;94377.84;6269228;22;20195;-90
2023/02/25 03:41:57;;;;;;;1.40;1.30;;;;;;;4.93;84.84;94380.53;6257770;22;20425;-91
2023/02/25 03:44:34;;;;;;;1.87;1.30;;;;;;;4.94;84.96;94374.47;6260217;22;20244;-91
2023/02/25 03:47:17;;;;;;;1.10;1.00;;;;;;;4.97;84.53;94369.03;6268111;22;20176;-90
2023/02/25 03:49:57;;;;;;;1.20;1.10;;;;;;;4.92;84.79;94373.84;6268791;22;20231;-91
2023/02/25 03:52:48;;;;;;;1.80;1.37;;;;;;;4.81;85.23;94381.91;6268418;22;20826;-91
2023/02/25 03:55:26;;;;;;;1.30;1.20;;;;;;;4.82;85.64;94381.69;6240519;22;20523;-92
2023/02/25 03:58:05;;;;;;;1.20;1.10;;;;;;;4.75;86.42;94385.13;6269067;22;20186;-91
2023/02/25 04:00:46;;;;;;;1.30;1.20;;;;;;;4.61;86.83;94383.31;6268535;22;20658;-91
2023/02/25 04:03:19;;;;;;;1.30;1.20;;;;;;;4.71;86.55;94381.31;6269096;22;20172;-91
2023/02/25 04:05:52;;;;;;;1.50;1.37;;;;;;;4.65;87.03;94392.97;6268308;22;20179;-91
2023/02/25 04:08:23;;;;;;;1.60;1.43;;;;;;;4.76;87.00;94395.16;6268553;22;20195;-91
2023/02/25 04:11:03;;;;;;;1.43;1.33;;;;;;;4.75;86.39;94395.31;6265209;22;20192;-91
2023/02/25 04:13:32;;;;;;;1.50;1.40;;;;;;;4.80;86.28;94398.16;6269590;22;20175;-91
2023/02/25 04:16:11;;;;;;;2.30;1.60;;;;;;;4.70;86.99;94400.13;6268909;22;20168;-91
2023/02/25 04:18:51;;;;;;;1.63;1.33;;;;;;;4.63;87.45;94411.94;6268673;22;20164;-91
2023/02/25 04:21:35;;;;;;;1.60;1.50;;;;;;;4.63;87.57;94411.94;6269133;22;20515;-91
2023/02/25 04:24:29;;;;;;;1.70;1.60;;;;;;;4.78;86.97;94408.53;6268837;22;20176;-91
2023/02/25 04:27:14;;;;;;;1.80;1.70;;;;;;;4.81;86.94;94400.50;6269161;22;20157;-91
2023/02/25 04:29:48;;;;;;;2.20;2.00;;;;;;;4.89;85.54;94397.13;6268591;22;20164;-91
2023/02/25 04:32:18;;;;;;;1.70;1.60;;;;;;;4.87;85.68;94393.94;6268486;22;20202;-91
2023/02/25 04:34:58;;;;;;;2.13;1.93;;;;;;;4.89;85.67;94404.78;6268641;22;20176;-90
2023/02/25 04:37:28;;;;;;;3.00;2.37;;;;;;;4.72;86.56;94410.94;6268241;22;20175;-92
2023/02/25 04:40:20;;;;;;;2.23;2.03;;;;;;;4.71;86.62;94401.72;6268129;22;20195;-91
2023/02/25 04:43:04;;;;;;;3.67;2.37;;;;;;;4.65;87.54;94407.47;6269031;22;20192;-91
2023/02/25 04:45:37;;;;;;;2.37;2.17;;;;;;;4.70;86.96;94402.69;6268728;22;20171;-91
2023/02/25 04:48:11;;;;;;;2.27;2.07;;;;;;;4.74;87.08;94402.19;6267785;22;20252;-91
2023/02/25 04:50:38;;;;;;;3.00;2.70;;;;;;;4.83;86.49;94419.00;6268299;22;20172;-91
2023/02/25 04:53:05;;;;;;;2.77;2.37;;;;;;;4.79;86.63;94417.75;6268376;22;20192;-90
2023/02/25 04:55:48;;;;;;;3.17;2.30;;;;;;;4.79;87.08;94411.88;6267535;22;20530;-90
2023/02/25 04:58:32;;;;;;;2.73;2.37;;;;;;;4.76;87.13;94415.56;6268302;22;20182;-89
2023/02/25 05:01:02;;;;;;;3.23;2.93;;;;;;;4.83;86.90;94413.09;6267800;22;20266;-89
2023/02/25 05:03:39;;;;;;;3.23;2.63;;;;;;;4.95;86.25;94411.75;6268738;22;20850;-90
2023/02/25 05:09:25;;;;;;;2.83;2.63;;;;;;;4.89;85.98;94416.72;6267253;22;20215;-90
2023/02/25 05:12:11;;;;;;;3.30;2.90;;;;;;;4.85;86.75;94423.91;6257972;22;20250;-90
2023/02/25 05:14:50;;;;;;;3.40;3.10;;;;;;;4.83;86.11;94421.53;6267880;22;20759;-90
2023/02/25 05:17:23;;;;;;;4.47;3.77;;;;;;;4.79;87.87;94427.97;6267367;22;20199;-90
2023/02/25 05:19:54;;;;;;;5.40;3.90;;;;;;;4.73;87.08;94436.28;6267677;22;20279;-89
2023/02/25 05:22:34;;;;;;;6.13;4.00;;;;;;;4.76;87.31;94441.03;6267435;22;20192;-89
2023/02/25 05:25:18;;;;;;;4.23;3.83;;;;;;;4.69;87.46;94436.78;6268395;22;20165;-90
2023/02/25 05:27:48;;;;;;;4.50;4.00;;;;;;;4.73;87.12;94438.81;6268482;22;20169;-89
2023/02/25 05:30:29;;;;;;;5.33;4.17;;;;;;;4.71;87.56;94445.06;6267671;22;20243;-90
2023/02/25 05:33:01;;;;;;;4.90;4.40;;;;;;;4.77;87.22;94436.75;6268156;22;20271;-90
2023/02/25 05:35:46;;;;;;;4.27;3.83;;;;;;;4.85;87.25;94450.22;6267520;22;20153;-89
2023/02/25 05:41:19;;;;;;;4.33;3.50;;;;;;;4.89;86.26;94450.69;6264807;22;20682;-89
2023/02/25 05:46:46;;;;;;;4.43;3.70;;;;;;;4.99;86.20;94453.81;6262007;22;20255;-90
2023/02/25 05:49:17;;;;;;;4.87;3.97;;;;;;;4.94;85.72;94450.97;6268274;22;20176;-90
2023/02/25 05:51:54;;;;;;;5.27;4.53;;;;;;;4.98;86.44;94464.19;6267893;22;20188;-89
2023/02/25 05:54:32;;;;;;;4.60;4.10;;;;;;;4.94;85.66;94458.63;6267519;22;20168;-89
2023/02/25 05:57:18;;;;;;;;;;;;;;;;;;;;;
2023/02/25 06:02:46;;;;;;;5.10;4.17;;;;;;;5.03;85.09;94475.44;6267267;22;20690;-90
2023/02/25 06:05:20;;;;;;;4.87;4.10;;;;;;;5.08;84.16;94470.63;6268695;22;20532;-89
2023/02/25 06:07:54;;;;;;;4.57;4.00;;;;;;;5.05;84.48;94472.72;6268119;22;20525;-90
2023/02/25 06:13:03;;;;;;;5.37;4.40;;;;;;;5.04;85.61;94471.13;6266296;22;20751;-90
2023/02/25 06:15:30;;;;;;;6.53;4.90;;;;;;;4.93;87.85;94468.97;6269539;22;20502;-89
2023/02/25 06:18:03;;;;;;;5.87;5.27;;;;;;;4.94;84.79;94466.28;6269992;22;20254;-90
2023/02/25 06:20:36;;;;;;;5.30;4.80;;;;;;;4.86;85.33;94477.31;6268700;22;20199;-89
2023/02/25 06:23:06;;;;;;;5.73;4.73;;;;;;;4.93;84.11;94479.19;6239182;23;20195;-90
2023/02/25 06:25:37;;;;;;;4.70;4.30;;;;;;;4.97;84.20;94473.59;6238945;23;20165;-89
2023/02/25 06:28:08;;;;;;;5.87;4.90;;;;;;;5.02;84.29;94483.25;6239150;23;20157;-88
2023/02/25 06:30:50;;;;;;;6.53;4.60;;;;;;;5.06;84.01;94490.41;6238947;22;20497;-90
2023/02/25 06:33:21;;;;;;;5.30;4.57;;;;;;;5.18;83.68;94489.06;6239183;23;20251;-90
2023/02/25 06:35:59;;;;;;;5.03;4.60;;;;;;;5.28;83.30;94488.81;6239390;23;20175;-90
2023/02/25 06:38:29;;;;;;;5.63;4.80;;;;;;;5.34;82.86;94497.56;6238898;23;20157;-89
2023/02/25 06:41:32;;;;;;;;;;;;;;;;;;;;;
2023/02/25 06:47:07;;;;;;;;;;;;;;;;;;;;;
2023/02/25 06:50:05;;;;;;;6.70;5.37;;;;;;;5.47;82.29;94500.31;6238185;23;20255;-90
2023/02/25 06:55:28;;;;;;;5.40;4.73;;;;;;;5.45;82.01;94508.16;6237753;23;20575;-89
2023/02/25 06:58:00;;;;;;;6.90;5.17;;;;;;;5.46;81.82;94508.94;6239114;23;20169;-89
2023/02/25 07:03:17;;;;;;;9.67;5.57;;;;;;;5.44;81.99;94503.22;6222798;23;20181;-90
2023/02/25 07:05:48;;;;;;;6.47;4.97;;;;;;;5.39;81.48;94513.13;6238358;23;20195;-89
2023/02/25 07:08:17;;;;;;;5.40;4.57;;;;;;;5.37;81.55;94515.88;6238783;23;20228;-89
2023/02/25 07:11:11;;;;;;;5.10;4.57;;;;;;;5.39;81.53;94515.69;6237986;22;20169;-89
2023/02/25 07:13:42;;;;;;;5.73;5.10;;;;;;;5.44;82.08;94506.56;6237757;23;20184;-90
2023/02/25 07:16:45;;;;;;;6.00;4.97;;;;;;;5.53;82.19;94515.75;6239212;23;20248;-89
2023/02/25 07:19:38;;;;;;;5.70;5.00;;;;;;;5.59;81.61;94509.16;6238968;23;20177;-88
2023/02/25 07:22:21;;;;;;;6.80;5.47;;;;;;;5.53;80.86;94509.84;6238304;22;20577;-89
2023/02/25 07:24:50;;;;;;;7.00;5.10;;;;;;;5.46;80.55;94517.41;6237952;23;20179;-89
2023/02/25 07:27:19;;;;;;;6.60;5.20;;;;;;;5.44;81.39;94509.13;6237723;23;20176;-90
2023/02/25 07:30:01;;;;;;;5.70;5.10;;;;;;;5.53;81.02;94513.22;6236949;23;20580;-90
2023/02/25 07:32:51;;;;;;;17.47;12.80;;;;;;;5.57;81.46;94506.00;6237900;22;20199;-89
2023/02/25 07:35:45;;;;;;;;;;;;;;;;;;;;;
2023/02/25 07:38:20;;;;;;;8.80;5.70;;;;;;;5.63;81.04;94504.50;6238184;23;20169;-90
2023/02/25 07:46:24;;;;;;;5.60;4.93;;;;;;;5.64;82.08;94511.19;6231438;23;20176;-90
2023/02/25 07:49:05;;;;;;;6.83;4.77;;;;;;;5.71;81.09;94509.53;6236479;23;20183;-89
2023/02/25 07:51:52;;;;;;;6.13;5.17;;;;;;;5.71;79.65;94515.44;6237380;22;20532;-89
2023/02/25 07:54:40;;;;;;;9.93;7.27;;;;;;;5.57;79.74;94512.88;6237095;23;20177;-90
2023/02/25 07:57:27;;;;;;;12.90;10.17;;;;;;;5.67;80.57;94519.31;6238527;23;20183;-89
2023/02/25 08:00:21;;;;;;;6.43;5.50;;;;;;;5.70;80.39;94516.41;6238588;23;20260;-89
2023/02/25 08:03:07;;;;;;;5.60;5.07;;;;;;;5.82;80.31;94519.34;6237795;22;20232;-90
2023/02/25 08:05:52;;;;;;;;;;;;;;;;;;;;;
2023/02/25 08:08:23;;;;;;;7.53;4.30;;;;;;;5.59;78.37;94509.16;6237699;23;20495;-89
2023/02/25 08:11:09;;;;;;;6.97;4.50;;;;;;;5.66;78.51;94504.94;6237418;22;20168;-89
2023/02/25 08:13:52;;;;;;;4.90;4.17;;;;;;;5.58;77.12;94509.34;6237320;23;20650;-89
2023/02/25 08:16:21;;;;;;;4.33;3.90;;;;;;;5.55;77.35;94495.97;6236784;23;20177;-90
2023/02/25 08:18:52;;;;;;;4.83;3.80;;;;;;;5.60;77.04;94504.84;6237880;23;20180;-89
2023/02/25 08:21:39;;;;;;;4.43;3.80;;;;;;;5.64;76.82;94506.09;6237495;22;20671;-89
2023/02/25 08:24:15;;;;;;;5.80;4.07;;;;;;;5.58;76.29;94497.34;6237544;23;20176;-89
2023/02/25 08:26:45;;;;;;;5.87;4.10;;;;;;;5.67;77.22;94498.09;6237802;23;20529;-89
2023/02/25 08:29:19;;;;;;;6.40;3.80;;;;;;;5.65;76.31;94498.25;6237507;23;20543;-89
2023/02/25 08:31:50;;;;;;;6.00;4.13;;;;;;;5.75;76.93;94491.16;6236758;22;20252;-89
2023/02/25 08:34:20;;;;;;;5.27;4.03;;;;;;;5.83;75.72;94500.50;6236637;23;20161;-89
2023/02/25 08:36:59;;;;;;;7.00;3.87;;;;;;;5.91;75.39;94490.25;6237318;23;20259;-89
2023/02/25 08:39:32;;;;;;;4.30;2.90;;;;;;;5.96;73.94;94502.50;6236776;23;20192;-90
2023/02/25 08:42:17;;;;;;;4.87;3.33;;;;;;;5.87;72.88;94504.28;6237592;22;20200;-89
2023/02/25 08:44:54;;;;;;;16.23;9.87;;;;;;;5.88;73.58;94501.59;6237246;23;20608;-89
2023/02/25 08:47:36;;;;;;;5.50;3.93;;;;;;;5.89;73.43;94500.63;6236164;23;20172;-89
2023/02/25 08:50:16;;;;;;;3.60;3.00;;;;;;;5.85;71.98;94501.13;6236593;23;20165;-89
2023/02/25 08:52:56;;;;;;;6.13;3.27;;;;;;;5.88;73.42;94503.31;6236859;22;20208;-89
2023/02/25 08:55:25;;;;;;;6.47;3.37;;;;;;;5.86;71.91;94503.50;6237026;23;20246;-89
2023/02/25 08:58:06;;;;;;;4.63;3.10;;;;;;;5.85;74.40;94504.47;6236856;23;20165;-90
2023/02/25 09:00:54;;;;;;;4.30;3.07;;;;;;;5.81;72.15;94512.63;6236543;22;20268;-89
2023/02/25 09:06:47;;;;;;;;;;;;;;;;;;;;;
2023/02/25 09:15:23;;;;;;;3.57;2.70;;;;;;;5.55;70.05;94516.38;6232012;23;20255;-89
2023/02/25 09:17:59;;;;;;;3.77;2.50;;;;;;;5.66;69.06;94510.06;6236966;23;20226;-89
2023/02/25 09:20:39;;;;;;;3.77;2.57;;;;;;;5.71;69.16;94515.44;6235574;23;20188;-89
2023/02/25 09:23:19;;;;;;;4.80;2.40;;;;;;;5.78;69.32;94512.97;6237111;23;20165;-89
2023/02/25 09:25:53;;;;;;;4.07;2.63;;;;;;;5.80;70.44;94508.50;6236948;23;20179;-89
2023/02/25 09:28:29;;;;;;;5.10;3.17;;;;;;;5.89;71.16;94508.28;6236550;23;20176;-89
2023/02/25 09:34:40;;;;;;;10.90;6.97;;;;;;;6.74;65.29;94507.03;6232513;23;20180;-88
2023/02/25 09:37:14;;;;;;;17.90;12.10;;;;;;;7.11;65.83;94501.75;6236800;23;20203;-88
2023/02/25 09:40:16;;;;;;;3.90;3.07;;;;;;;7.57;64.67;94496.25;6237052;23;20607;-90
2023/02/25 09:43:05;;;;;;;5.63;2.30;;;;;;;7.69;64.42;94494.00;6236457;22;20196;-89
2023/02/25 09:48:43;;;;;;;6.27;2.30;;;;;;;7.92;61.66;94500.47;6231312;23;20231;-89
2023/02/25 09:54:19;;;;;;;3.17;2.07;;;;;;;7.63;62.22;94477.59;6235854;23;20169;-89
2023/02/25 09:59:44;;;;;;;4.80;2.50;;;;;;;7.30;62.05;94485.00;6233001;23;20177;-90
2023/02/25 10:02:30;;;;;;;3.27;2.30;;;;;;;7.17;62.39;94488.22;6236205;22;20197;-89
2023/02/25 10:05:25;;;;;;;6.00;1.80;;;;;;;6.91;59.93;94493.06;6236923;23;20572;-90
2023/02/25 10:08:14;;;;;;;4.17;1.90;;;;;;;6.62;62.09;94493.13;6237029;23;20169;-91
2023/02/25 10:11:25;;;;;;;;;;;;;;;;;;;;;
2023/02/25 10:24:55;;;;;;;4.90;1.80;;;;;;;5.95;59.13;94511.13;6203882;23;20173;-90
2023/02/25 10:30:32;;;;;;;4.37;2.00;;;;;;;6.09;58.92;94495.00;6032809;23;20256;-90
2023/02/25 10:33:20;;;;;;;3.40;1.90;;;;;;;6.08;59.78;94498.53;6235925;22;20197;-89
2023/02/25 10:36:01;;;;;;;4.70;2.00;;;;;;;6.08;58.03;94491.66;6236214;23;20184;-90
2023/02/25 10:41:32;;;;;;;3.20;1.60;;;;;;;6.06;57.06;94490.25;6235372;22;20713;-90
2023/02/25 10:44:29;;;;;;;7.13;4.80;;;;;;;6.13;58.09;94488.59;6235969;23;20224;-90
2023/02/25 10:47:06;;;;;;;11.63;7.83;;;;;;;6.26;59.47;94482.84;6235655;23;20218;-91
2023/02/25 10:50:26;;;;;;;7.67;2.97;;;;;;;6.44;58.99;94480.72;6236256;23;20188;-90
2023/02/25 10:53:10;;;;;;;1.70;1.40;;;;;;;6.49;57.68;94481.78;6236299;22;20579;-90
2023/02/25 10:55:54;;;;;;;4.63;1.57;;;;;;;6.49;58.47;94475.88;6236305;23;20200;-90
2023/02/25 10:58:35;;;;;;;3.13;1.80;;;;;;;6.53;58.44;94480.47;6237176;23;20166;-90
2023/02/25 11:01:30;;;;;;;4.27;2.20;;;;;;;6.50;58.10;94477.47;6237835;22;20197;-90
2023/02/25 11:04:31;;;;;;;;;;;;;;;;;;;;;
2023/02/25 11:07:34;;;;;;;4.87;2.07;;;;;;;6.64;57.18;94460.50;6238865;23;20603;-90
2023/02/25 11:10:29;;;;;;;2.97;1.60;;;;;;;6.57;55.79;94460.41;6238073;23;20172;-90
2023/02/25 11:16:33;;;;;;;2.10;1.47;;;;;;;6.67;55.62;94455.81;6235093;23;20615;-89
2023/02/25 11:22:43;;;;;;;3.70;1.30;;;;;;;6.72;54.19;94445.06;6213398;22;20204;-90
2023/02/25 11:25:56;;;;;;;;;;;;;;;;;;;;;
2023/02/25 11:38:34;;;;;;;6.40;2.03;;;;;;;6.45;55.52;94439.63;6053620;23;20178;-90
2023/02/25 11:44:48;;;;;;;3.90;1.40;;;;;;;6.60;56.31;94434.50;6055101;23;20599;-89
2023/02/25 11:54:08;;;;;;;2.77;1.10;;;;;;;6.76;52.94;94424.03;6234667;23;20183;-90
2023/02/25 12:01:03;;;;;;;1.43;1.00;;;;;;;6.87;52.71;94421.00;6109917;23;20742;-90
2023/02/25 12:04:09;;;;;;;3.83;1.40;;;;;;;6.99;52.81;94408.50;6149717;23;20164;-91
2023/02/25 12:10:56;;;;;;;14.43;10.47;;;;;;;7.28;51.48;94397.34;6157310;23;20173;-90
2023/02/25 12:17:19;;;;;;;3.10;1.20;;;;;;;8.09;49.93;94400.19;6127434;23;20207;-89
2023/02/25 12:41:59;;;;;;;;;;;;;;;;;;;;;
2023/02/25 12:49:00;;;;;;;1.30;1.10;;;;;;;7.68;48.21;94400.19;6102549;23;20188;-89
2023/02/25 12:59:10;;;;;;;2.27;1.17;;;;;;;8.50;47.07;94383.03;5942780;23;20691;-89
2023/02/25 13:06:19;;;;;;;3.73;2.87;;;;;;;8.57;44.61;94388.19;6072411;23;20185;-90
2023/02/25 13:12:55;;;;;;;;;;;;;;;;;;;;;
2023/02/25 13:15:42;;;;;;;1.77;1.20;;;;;;;8.83;44.66;94382.34;6084172;23;20183;-90
2023/02/25 13:22:25;;;;;;;2.23;1.20;;;;;;;9.50;43.40;94386.50;6054438;23;20205;-89
2023/02/25 13:25:37;;;;;;;1.83;1.10;;;;;;;9.82;42.81;94374.59;6055812;23;20177;-90
2023/02/25 13:28:42;;;;;;;1.67;1.10;;;;;;;10.08;42.34;94377.09;6021433;23;20232;-89
2023/02/25 13:35:35;;;;;;;;;;;;;;;;;;;;;
2023/02/25 13:48:38;;;;;;;2.00;1.10;;;;;;;9.52;40.33;94390.47;6235334;23;20177;-89
2023/02/25 13:51:42;;;;;;;2.47;1.00;;;;;;;9.16;39.85;94393.44;6212661;22;20196;-90
2023/02/25 13:54:38;;;;;;;11.30;8.53;;;;;;;8.64;41.05;94376.19;6236628;23;20172;-89
2023/02/25 13:57:38;;;;;;;10.20;7.80;;;;;;;8.36;41.83;94386.56;6237078;23;20172;-89
2023/02/25 14:04:02;;;;;;;3.07;1.37;;;;;;;8.07;43.74;94392.72;6229989;23;20204;-90
2023/02/25 14:06:55;;;;;;;1.60;1.20;;;;;;;7.81;44.14;94387.44;6236423;23;20180;-89
2023/02/25 14:09:42;;;;;;;2.70;1.40;;;;;;;7.82;45.02;94396.72;6236476;23;20196;-88
2023/02/25 14:12:40;;;;;;;;;;;;;;;;;;;;;
2023/02/25 14:18:23;;;;;;;1.73;1.10;;;;;;;7.62;46.01;94397.41;6235274;23;20230;-91
2023/02/25 14:21:08;;;;;;;2.03;1.10;;;;;;;7.65;44.89;94398.00;6236902;22;20232;-91
2023/02/25 14:24:21;;;;;;;1.97;0.90;;;;;;;7.65;44.97;94393.66;6236882;23;20256;-91
2023/02/25 14:27:08;;;;;;;1.67;1.20;;;;;;;7.63;45.12;94404.09;6236765;23;20168;-91
2023/02/25 14:30:10;;;;;;;2.30;1.10;;;;;;;7.54;45.84;94410.31;6236611;23;20198;-91
2023/02/25 14:32:55;;;;;;;1.53;1.33;;;;;;;7.46;46.12;94414.81;6236933;22;20189;-92
2023/02/25 14:35:53;;;;;;;2.70;1.20;;;;;;;7.39;46.58;94422.44;6238515;23;20176;-91
2023/02/25 14:38:37;;;;;;;4.90;4.00;;;;;;;7.23;46.75;94420.16;6238998;23;20503;-91
2023/02/25 14:41:26;;;;;;;3.23;2.10;;;;;;;7.07;47.26;94428.88;6238780;22;20626;-91
2023/02/25 14:44:06;;;;;;;2.07;1.47;;;;;;;7.06;48.05;94421.38;6238485;23;20196;-91
2023/02/25 14:49:51;;;;;;;1.87;1.17;;;;;;;6.95;48.84;94420.06;6223936;23;20173;-91
2023/02/25 14:52:54;;;;;;;1.80;1.20;;;;;;;6.84;48.81;94418.03;6238835;22;20242;-92
2023/02/25 14:56:04;;;;;;;3.53;1.50;;;;;;;6.95;49.40;94425.19;6239196;23;20219;-91
2023/02/25 14:59:03;;;;;;;2.20;1.47;;;;;;;6.85;49.26;94427.28;6208436;23;20423;-92
2023/02/25 15:02:15;;;;;;;2.37;1.20;;;;;;;6.85;50.31;94419.59;6238036;22;20216;-92
2023/02/25 15:08:47;;;;;;;5.20;3.10;;;;;;;6.84;50.83;94435.91;6185904;23;20173;-91
2023/02/25 15:11:54;;;;;;;1.80;1.30;;;;;;;6.77;49.47;94430.72;6238379;22;20570;-91
2023/02/25 15:15:09;;;;;;;2.27;1.30;;;;;;;6.84;49.83;94435.91;6237791;23;20247;-91
2023/02/25 15:18:47;;;;;;;1.40;1.30;;;;;;;6.80;50.13;94435.50;6237953;23;20859;-91
2023/02/25 15:21:48;;;;;;;2.03;1.30;;;;;;;6.86;50.24;94437.31;6169275;22;20247;-92
2023/02/25 15:27:59;;;;;;;1.50;1.20;;;;;;;6.83;49.13;94434.34;6236575;23;20515;-92
2023/02/25 15:30:50;;;;;;;1.70;1.20;;;;;;;6.79;48.67;94444.13;6084761;23;20238;-91
2023/02/25 15:37:16;;;;;;;2.27;1.13;;;;;;;6.65;49.02;94446.75;6219065;23;20179;-91
2023/02/25 15:57:10;;;;;;;15.83;10.93;;;;;;;6.55;49.60;94457.25;6236411;23;20173;-93
2023/02/25 16:03:45;;;;;;;1.33;1.10;;;;;;;6.42;49.36;94468.09;6079083;23;20244;-92
2023/02/25 16:09:54;;;;;;;3.57;1.00;;;;;;;6.38;49.90;94461.75;6236326;23;20173;-91
2023/02/25 16:16:18;;;;;;;0.80;0.80;;;;;;;6.43;50.05;94469.69;6235989;23;20179;-91
2023/02/25 16:19:24;;;;;;;;;;;;;;;;;;;;;
2023/02/25 16:22:20;;;;;;;0.90;0.87;;;;;;;6.42;49.90;94473.22;6236996;22;20275;-92
2023/02/25 16:28:32;;;;;;;1.57;1.23;;;;;;;6.53;50.47;94480.47;6189218;23;20257;-92
2023/02/25 16:34:34;;;;;;;2.13;1.73;;;;;;;6.46;50.23;94481.34;6236503;23;20268;-91
2023/02/25 16:37:14;;;;;;;2.53;1.73;;;;;;;6.41;50.25;94483.63;6237676;23;20179;-90
2023/02/25 16:39:47;;;;;;;2.97;1.57;;;;;;;6.47;50.88;94488.81;6237866;23;20480;-91
2023/02/25 16:45:31;;;;;;;2.97;1.30;;;;;;;6.52;50.53;94485.75;6144349;23;20228;-91
2023/02/25 17:15:01;;;;;;;3.43;1.10;;;;;;;6.24;52.14;94522.16;6204055;23;20195;-92
2023/02/25 17:21:35;;;;;;;1.83;1.30;;;;;;;6.22;52.61;94530.97;6199657;23;20192;-92
2023/02/25 17:28:07;;;;;;;;;;;;;;;;;;;;;
2023/02/25 17:31:25;;;;;;;4.20;2.00;;;;;;;6.16;53.55;94542.66;6206653;23;20184;-91
2023/02/25 17:34:44;;;;;;;3.13;1.60;;;;;;;6.16;54.12;94550.34;6153242;23;20772;-92
2023/02/25 17:37:47;;;;;;;2.60;1.60;;;;;;;6.14;54.17;94559.16;6203873;23;20185;-91
2023/02/25 17:44:45;;;;;;;4.83;2.20;;;;;;;6.10;54.98;94558.72;6113860;23;20225;-92
2023/02/25 18:10:37;;;;;;;1.97;1.50;;;;;;;4.94;71.77;94637.13;6143407;23;20163;-92
2023/02/25 21:22:05;;;;;;;2.17;1.93;;;;;;;3.53;76.77;94711.38;6225945;22;20204;-93
2023/02/25 21:24:37;;;;;;;2.43;2.10;;;;;;;3.44;78.26;94712.34;6207129;23;20208;-92
2023/02/25 21:27:53;;;;;;;3.90;3.47;;;;;;;3.35;77.71;94700.53;6208626;23;20178;-93
2023/02/25 21:30:20;;;;;;;17.73;13.60;;;;;;;3.38;77.94;94705.31;6207596;23;20180;-92
2023/02/25 21:32:55;;;;;;;9.73;7.17;;;;;;;3.46;77.27;94703.56;6207479;23;20275;-92
2023/02/25 21:35:23;;;;;;;2.93;2.40;;;;;;;3.67;76.85;94707.44;6207702;23;20226;-93
2023/02/25 21:37:55;;;;;;;2.30;2.00;;;;;;;3.64;76.48;94705.22;6210453;23;20511;-93
2023/02/25 21:40:33;;;;;;;1.90;1.70;;;;;;;3.67;76.55;94708.25;6210283;23;20169;-92
2023/02/25 21:43:18;;;;;;;1.60;1.50;;;;;;;3.73;76.10;94700.00;6210512;23;20193;-91
2023/02/25 21:46:10;;;;;;;2.27;1.77;;;;;;;3.81;76.15;94709.41;6208431;23;20181;-93